sensor_id;sensor_type;location;lat;lon;timestamp;temperature;humidity
40676;DHT22;26359;48.750;9.314;2023-08-21T00:00:06;23.80;99.90
40676;DHT22;26359;48.750;9.314;2023-08-21T00:02:32;23.80;99.90
40676;DHT22;26359;48.750;9.314;2023-08-21T00:04:58;23.80;99.90
40676;DHT22;26359;48.750;9.314;2023-08-21T00:07:23;23.80;99.90
40676;DHT22;26359;48.750;9.314;2023-08-21T00:09:49;23.90;99.90
40676;DHT22;26359;48.750;9.314;2023-08-21T00:12:15;23.90;99.90
40676;DHT22;26359;48.750;9.314;2023-08-21T00:14:41;23.90;99.90
40676;DHT22;26359;48.750;9.314;2023-08-21T00:17:06;23.90;99.90
40676;DHT22;26359;48.750;9.314;2023-08-21T00:19:32;23.90;99.90
40676;DHT22;26359;48.750;9.314;2023-08-21T00:21:59;23.90;99.90
40676;DHT22;26359;48.750;9.314;2023-08-21T00:24:25;23.90;99.90
40676;DHT22;26359;48.750;9.314;2023-08-21T00:26:50;23.80;99.90
40676;DHT22;26359;48.750;9.314;2023-08-21T00:29:16;23.70;99.90
40676;DHT22;26359;48.750;9.314;2023-08-21T00:31:41;23.80;99.90
40676;DHT22;26359;48.750;9.314;2023-08-21T00:34:07;23.80;99.90
40676;DHT22;26359;48.750;9.314;2023-08-21T00:36:32;23.70;99.90
40676;DHT22;26359;48.750;9.314;2023-08-21T00:38:58;23.80;99.90
40676;DHT22;26359;48.750;9.314;2023-08-21T00:41:24;23.80;99.90
40676;DHT22;26359;48.750;9.314;2023-08-21T00:43:49;23.80;99.90
40676;DHT22;26359;48.750;9.314;2023-08-21T00:46:15;23.80;99.90
40676;DHT22;26359;48.750;9.314;2023-08-21T00:48:41;23.80;99.90
40676;DHT22;26359;48.750;9.314;2023-08-21T00:51:07;23.70;99.90
40676;DHT22;26359;48.750;9.314;2023-08-21T00:53:34;23.70;99.90
40676;DHT22;26359;48.750;9.314;2023-08-21T00:55:59;23.70;99.90
40676;DHT22;26359;48.750;9.314;2023-08-21T00:58:25;23.60;99.90
40676;DHT22;26359;48.750;9.314;2023-08-21T01:00:52;23.60;99.90
40676;DHT22;26359;48.750;9.314;2023-08-21T01:03:18;23.60;99.90
40676;DHT22;26359;48.750;9.314;2023-08-21T01:05:43;23.50;99.90
40676;DHT22;26359;48.750;9.314;2023-08-21T01:08:26;23.40;99.90
40676;DHT22;26359;48.750;9.314;2023-08-21T01:11:02;23.40;99.90
40676;DHT22;26359;48.750;9.314;2023-08-21T01:13:52;23.40;99.90
40676;DHT22;26359;48.750;9.314;2023-08-21T01:16:21;23.40;99.90
40676;DHT22;26359;48.750;9.314;2023-08-21T01:18:47;23.40;99.90
40676;DHT22;26359;48.750;9.314;2023-08-21T01:21:14;23.30;99.90
40676;DHT22;26359;48.750;9.314;2023-08-21T01:23:41;23.30;99.90
40676;DHT22;26359;48.750;9.314;2023-08-21T01:26:09;23.30;99.90
40676;DHT22;26359;48.750;9.314;2023-08-21T01:28:35;23.30;99.90
40676;DHT22;26359;48.750;9.314;2023-08-21T01:33:40;23.30;99.90
40676;DHT22;26359;48.750;9.314;2023-08-21T01:36:07;23.20;99.90
40676;DHT22;26359;48.750;9.314;2023-08-21T01:38:33;23.10;99.90
40676;DHT22;26359;48.750;9.314;2023-08-21T01:41:00;23.10;99.90
40676;DHT22;26359;48.750;9.314;2023-08-21T01:43:26;23.10;99.90
40676;DHT22;26359;48.750;9.314;2023-08-21T01:45:52;23.10;99.90
40676;DHT22;26359;48.750;9.314;2023-08-21T01:48:17;23.10;99.90
40676;DHT22;26359;48.750;9.314;2023-08-21T01:50:43;23.00;99.90
40676;DHT22;26359;48.750;9.314;2023-08-21T01:53:08;23.00;99.90
40676;DHT22;26359;48.750;9.314;2023-08-21T01:55:34;23.00;99.90
40676;DHT22;26359;48.750;9.314;2023-08-21T01:57:59;23.00;99.90
40676;DHT22;26359;48.750;9.314;2023-08-21T02:00:25;22.90;99.90
40676;DHT22;26359;48.750;9.314;2023-08-21T02:02:50;22.90;99.90
40676;DHT22;26359;48.750;9.314;2023-08-21T02:05:16;22.90;99.90
40676;DHT22;26359;48.750;9.314;2023-08-21T02:07:41;23.00;99.90
40676;DHT22;26359;48.750;9.314;2023-08-21T02:10:07;22.90;99.90
40676;DHT22;26359;48.750;9.314;2023-08-21T02:12:33;22.90;99.90
40676;DHT22;26359;48.750;9.314;2023-08-21T02:14:58;22.80;99.90
40676;DHT22;26359;48.750;9.314;2023-08-21T02:17:26;22.90;99.90
40676;DHT22;26359;48.750;9.314;2023-08-21T02:19:52;22.90;99.90
40676;DHT22;26359;48.750;9.314;2023-08-21T02:22:17;22.90;99.90
40676;DHT22;26359;48.750;9.314;2023-08-21T02:24:43;22.90;99.90
40676;DHT22;26359;48.750;9.314;2023-08-21T02:27:09;22.90;99.90
40676;DHT22;26359;48.750;9.314;2023-08-21T02:29:34;22.80;99.90
40676;DHT22;26359;48.750;9.314;2023-08-21T02:32:00;22.80;99.90
40676;DHT22;26359;48.750;9.314;2023-08-21T02:34:25;22.80;99.90
40676;DHT22;26359;48.750;9.314;2023-08-21T02:36:52;22.80;99.90
40676;DHT22;26359;48.750;9.314;2023-08-21T02:39:17;22.90;99.90
40676;DHT22;26359;48.750;9.314;2023-08-21T02:41:43;22.90;99.90
40676;DHT22;26359;48.750;9.314;2023-08-21T02:44:08;22.90;99.90
40676;DHT22;26359;48.750;9.314;2023-08-21T02:46:34;22.80;99.90
40676;DHT22;26359;48.750;9.314;2023-08-21T02:49:01;22.70;99.90
40676;DHT22;26359;48.750;9.314;2023-08-21T02:51:27;22.70;99.90
40676;DHT22;26359;48.750;9.314;2023-08-21T02:53:52;22.70;99.90
40676;DHT22;26359;48.750;9.314;2023-08-21T02:56:18;22.60;99.90
40676;DHT22;26359;48.750;9.314;2023-08-21T02:58:44;22.60;99.90
40676;DHT22;26359;48.750;9.314;2023-08-21T03:01:09;22.50;99.90
40676;DHT22;26359;48.750;9.314;2023-08-21T03:03:35;22.50;99.90
40676;DHT22;26359;48.750;9.314;2023-08-21T03:06:01;22.50;99.90
40676;DHT22;26359;48.750;9.314;2023-08-21T03:08:27;22.40;99.90
40676;DHT22;26359;48.750;9.314;2023-08-21T03:10:53;22.40;99.90
40676;DHT22;26359;48.750;9.314;2023-08-21T03:13:18;22.40;99.90
40676;DHT22;26359;48.750;9.314;2023-08-21T03:15:44;22.40;99.90
40676;DHT22;26359;48.750;9.314;2023-08-21T03:18:10;22.40;99.90
40676;DHT22;26359;48.750;9.314;2023-08-21T03:20:35;22.50;99.90
40676;DHT22;26359;48.750;9.314;2023-08-21T03:23:01;22.50;99.90
40676;DHT22;26359;48.750;9.314;2023-08-21T03:25:27;22.50;99.90
40676;DHT22;26359;48.750;9.314;2023-08-21T03:27:53;22.60;99.90
40676;DHT22;26359;48.750;9.314;2023-08-21T03:30:18;22.50;99.90
40676;DHT22;26359;48.750;9.314;2023-08-21T03:32:44;22.50;99.90
40676;DHT22;26359;48.750;9.314;2023-08-21T03:35:11;22.50;99.90
40676;DHT22;26359;48.750;9.314;2023-08-21T03:37:36;22.50;99.90
40676;DHT22;26359;48.750;9.314;2023-08-21T03:40:05;22.40;99.90
40676;DHT22;26359;48.750;9.314;2023-08-21T03:42:31;22.40;99.90
40676;DHT22;26359;48.750;9.314;2023-08-21T03:44:57;22.30;99.90
40676;DHT22;26359;48.750;9.314;2023-08-21T03:47:22;22.40;99.90
40676;DHT22;26359;48.750;9.314;2023-08-21T03:49:48;22.40;99.90
40676;DHT22;26359;48.750;9.314;2023-08-21T03:52:14;22.40;99.90
40676;DHT22;26359;48.750;9.314;2023-08-21T03:54:39;22.40;99.90
40676;DHT22;26359;48.750;9.314;2023-08-21T03:57:05;22.40;99.90
40676;DHT22;26359;48.750;9.314;2023-08-21T03:59:30;22.40;99.90
40676;DHT22;26359;48.750;9.314;2023-08-21T04:01:56;22.40;99.90
40676;DHT22;26359;48.750;9.314;2023-08-21T04:04:22;22.40;99.90
40676;DHT22;26359;48.750;9.314;2023-08-21T04:06:47;22.40;99.90
40676;DHT22;26359;48.750;9.314;2023-08-21T04:09:13;22.40;99.90
40676;DHT22;26359;48.750;9.314;2023-08-21T04:11:38;22.40;99.90
40676;DHT22;26359;48.750;9.314;2023-08-21T04:14:04;22.40;99.90
40676;DHT22;26359;48.750;9.314;2023-08-21T04:16:30;22.30;99.90
40676;DHT22;26359;48.750;9.314;2023-08-21T04:18:56;22.30;99.90
40676;DHT22;26359;48.750;9.314;2023-08-21T04:21:22;22.30;99.90
40676;DHT22;26359;48.750;9.314;2023-08-21T04:23:47;22.30;99.90
40676;DHT22;26359;48.750;9.314;2023-08-21T04:26:13;22.30;99.90
40676;DHT22;26359;48.750;9.314;2023-08-21T04:28:39;22.30;99.90
40676;DHT22;26359;48.750;9.314;2023-08-21T04:31:05;22.20;99.90
40676;DHT22;26359;48.750;9.314;2023-08-21T04:33:32;22.10;99.90
40676;DHT22;26359;48.750;9.314;2023-08-21T04:35:57;22.00;99.90
40676;DHT22;26359;48.750;9.314;2023-08-21T04:38:23;22.00;99.90
40676;DHT22;26359;48.750;9.314;2023-08-21T04:40:49;22.10;99.90
40676;DHT22;26359;48.750;9.314;2023-08-21T04:43:14;22.10;99.90
40676;DHT22;26359;48.750;9.314;2023-08-21T04:45:52;22.10;99.90
40676;DHT22;26359;48.750;9.314;2023-08-21T04:48:18;22.00;99.90
40676;DHT22;26359;48.750;9.314;2023-08-21T04:50:45;21.90;99.90
40676;DHT22;26359;48.750;9.314;2023-08-21T04:53:11;21.90;99.90
40676;DHT22;26359;48.750;9.314;2023-08-21T04:55:36;22.00;99.90
40676;DHT22;26359;48.750;9.314;2023-08-21T04:58:02;22.10;99.90
40676;DHT22;26359;48.750;9.314;2023-08-21T05:00:28;22.00;99.90
40676;DHT22;26359;48.750;9.314;2023-08-21T05:02:54;22.00;99.90
40676;DHT22;26359;48.750;9.314;2023-08-21T05:05:20;22.00;99.90
40676;DHT22;26359;48.750;9.314;2023-08-21T05:07:45;22.10;99.90
40676;DHT22;26359;48.750;9.314;2023-08-21T05:10:11;22.20;99.90
40676;DHT22;26359;48.750;9.314;2023-08-21T05:12:37;22.20;99.90
40676;DHT22;26359;48.750;9.314;2023-08-21T05:15:02;22.20;99.90
40676;DHT22;26359;48.750;9.314;2023-08-21T05:17:28;22.00;99.90
40676;DHT22;26359;48.750;9.314;2023-08-21T05:19:55;22.00;99.90
40676;DHT22;26359;48.750;9.314;2023-08-21T05:22:20;22.00;99.90
40676;DHT22;26359;48.750;9.314;2023-08-21T05:24:46;22.00;99.90
40676;DHT22;26359;48.750;9.314;2023-08-21T05:27:11;22.00;99.90
40676;DHT22;26359;48.750;9.314;2023-08-21T05:29:37;22.00;99.90
40676;DHT22;26359;48.750;9.314;2023-08-21T05:32:02;21.90;99.90
40676;DHT22;26359;48.750;9.314;2023-08-21T05:34:28;21.90;99.90
40676;DHT22;26359;48.750;9.314;2023-08-21T05:36:53;22.00;99.90
40676;DHT22;26359;48.750;9.314;2023-08-21T05:39:20;22.00;99.90
40676;DHT22;26359;48.750;9.314;2023-08-21T05:41:46;22.00;99.90
40676;DHT22;26359;48.750;9.314;2023-08-21T05:44:11;22.00;99.90
40676;DHT22;26359;48.750;9.314;2023-08-21T05:46:37;22.00;99.90
40676;DHT22;26359;48.750;9.314;2023-08-21T05:49:03;22.00;99.90
40676;DHT22;26359;48.750;9.314;2023-08-21T05:51:29;22.10;99.90
40676;DHT22;26359;48.750;9.314;2023-08-21T05:53:54;22.10;99.90
40676;DHT22;26359;48.750;9.314;2023-08-21T05:56:20;22.10;99.90
40676;DHT22;26359;48.750;9.314;2023-08-21T05:58:45;22.10;99.90
40676;DHT22;26359;48.750;9.314;2023-08-21T06:01:11;22.10;99.90
40676;DHT22;26359;48.750;9.314;2023-08-21T06:03:37;22.10;99.90
40676;DHT22;26359;48.750;9.314;2023-08-21T06:06:03;22.10;99.90
40676;DHT22;26359;48.750;9.314;2023-08-21T06:08:28;22.20;99.90
40676;DHT22;26359;48.750;9.314;2023-08-21T06:10:54;22.20;99.90
40676;DHT22;26359;48.750;9.314;2023-08-21T06:13:19;22.20;99.90
40676;DHT22;26359;48.750;9.314;2023-08-21T06:15:45;22.20;99.90
40676;DHT22;26359;48.750;9.314;2023-08-21T06:18:11;22.20;99.90
40676;DHT22;26359;48.750;9.314;2023-08-21T06:20:36;22.30;99.90
40676;DHT22;26359;48.750;9.314;2023-08-21T06:23:02;22.30;99.90
40676;DHT22;26359;48.750;9.314;2023-08-21T06:25:28;22.40;99.90
40676;DHT22;26359;48.750;9.314;2023-08-21T06:27:55;22.40;99.90
40676;DHT22;26359;48.750;9.314;2023-08-21T06:30:21;22.50;99.90
40676;DHT22;26359;48.750;9.314;2023-08-21T06:32:47;22.50;99.90
40676;DHT22;26359;48.750;9.314;2023-08-21T06:35:12;22.50;99.90
40676;DHT22;26359;48.750;9.314;2023-08-21T06:37:39;22.60;99.90
40676;DHT22;26359;48.750;9.314;2023-08-21T06:40:05;22.60;99.90
40676;DHT22;26359;48.750;9.314;2023-08-21T06:42:32;22.60;99.90
40676;DHT22;26359;48.750;9.314;2023-08-21T06:44:57;22.70;99.90
40676;DHT22;26359;48.750;9.314;2023-08-21T06:47:23;22.70;99.90
40676;DHT22;26359;48.750;9.314;2023-08-21T06:49:49;22.70;99.90
40676;DHT22;26359;48.750;9.314;2023-08-21T06:52:14;22.70;99.90
40676;DHT22;26359;48.750;9.314;2023-08-21T06:54:40;22.70;99.90
40676;DHT22;26359;48.750;9.314;2023-08-21T06:57:05;22.80;99.90
40676;DHT22;26359;48.750;9.314;2023-08-21T06:59:31;22.80;99.90
40676;DHT22;26359;48.750;9.314;2023-08-21T07:02:03;22.90;99.90
40676;DHT22;26359;48.750;9.314;2023-08-21T07:04:29;22.90;99.90
40676;DHT22;26359;48.750;9.314;2023-08-21T07:06:55;23.00;99.90
40676;DHT22;26359;48.750;9.314;2023-08-21T07:09:20;23.00;99.90
40676;DHT22;26359;48.750;9.314;2023-08-21T07:11:46;23.10;99.90
40676;DHT22;26359;48.750;9.314;2023-08-21T07:14:11;23.20;99.90
40676;DHT22;26359;48.750;9.314;2023-08-21T07:16:39;23.20;99.90
40676;DHT22;26359;48.750;9.314;2023-08-21T07:19:05;23.30;99.90
40676;DHT22;26359;48.750;9.314;2023-08-21T07:21:30;23.30;99.90
40676;DHT22;26359;48.750;9.314;2023-08-21T07:23:56;23.40;99.90
40676;DHT22;26359;48.750;9.314;2023-08-21T07:26:21;23.50;99.90
40676;DHT22;26359;48.750;9.314;2023-08-21T07:28:47;23.60;99.90
40676;DHT22;26359;48.750;9.314;2023-08-21T07:31:12;23.70;99.90
40676;DHT22;26359;48.750;9.314;2023-08-21T07:33:38;23.70;99.90
40676;DHT22;26359;48.750;9.314;2023-08-21T07:36:05;23.70;99.90
40676;DHT22;26359;48.750;9.314;2023-08-21T07:38:31;23.80;99.90
40676;DHT22;26359;48.750;9.314;2023-08-21T07:41:07;23.90;99.90
40676;DHT22;26359;48.750;9.314;2023-08-21T07:43:35;23.90;99.90
40676;DHT22;26359;48.750;9.314;2023-08-21T07:46:09;24.00;99.90
40676;DHT22;26359;48.750;9.314;2023-08-21T07:48:36;24.10;99.90
40676;DHT22;26359;48.750;9.314;2023-08-21T07:51:02;24.20;99.90
40676;DHT22;26359;48.750;9.314;2023-08-21T07:53:27;24.30;99.90
40676;DHT22;26359;48.750;9.314;2023-08-21T07:55:53;24.40;99.90
40676;DHT22;26359;48.750;9.314;2023-08-21T07:58:19;24.40;99.90
40676;DHT22;26359;48.750;9.314;2023-08-21T08:00:45;24.50;99.90
40676;DHT22;26359;48.750;9.314;2023-08-21T08:03:10;24.50;99.90
40676;DHT22;26359;48.750;9.314;2023-08-21T08:05:37;24.60;99.90
40676;DHT22;26359;48.750;9.314;2023-08-21T08:08:03;24.70;99.90
40676;DHT22;26359;48.750;9.314;2023-08-21T08:10:29;24.80;99.90
40676;DHT22;26359;48.750;9.314;2023-08-21T08:12:54;24.80;99.90
40676;DHT22;26359;48.750;9.314;2023-08-21T08:15:21;25.00;99.90
40676;DHT22;26359;48.750;9.314;2023-08-21T08:17:46;25.00;99.90
40676;DHT22;26359;48.750;9.314;2023-08-21T08:20:13;25.10;99.90
40676;DHT22;26359;48.750;9.314;2023-08-21T08:22:39;25.20;99.90
40676;DHT22;26359;48.750;9.314;2023-08-21T08:25:06;25.30;99.90
40676;DHT22;26359;48.750;9.314;2023-08-21T08:27:32;25.40;99.90
40676;DHT22;26359;48.750;9.314;2023-08-21T08:29:58;25.50;99.90
40676;DHT22;26359;48.750;9.314;2023-08-21T08:32:23;25.50;99.90
40676;DHT22;26359;48.750;9.314;2023-08-21T08:34:49;25.60;99.90
40676;DHT22;26359;48.750;9.314;2023-08-21T08:37:14;25.70;99.90
40676;DHT22;26359;48.750;9.314;2023-08-21T08:39:40;25.70;99.90
40676;DHT22;26359;48.750;9.314;2023-08-21T08:42:06;25.80;99.90
40676;DHT22;26359;48.750;9.314;2023-08-21T08:44:35;25.90;99.90
40676;DHT22;26359;48.750;9.314;2023-08-21T08:47:03;26.10;99.90
40676;DHT22;26359;48.750;9.314;2023-08-21T08:49:29;26.20;99.90
40676;DHT22;26359;48.750;9.314;2023-08-21T08:51:55;26.40;99.90
40676;DHT22;26359;48.750;9.314;2023-08-21T08:54:22;26.50;99.90
40676;DHT22;26359;48.750;9.314;2023-08-21T08:56:48;26.60;99.90
40676;DHT22;26359;48.750;9.314;2023-08-21T08:59:13;26.70;99.90
40676;DHT22;26359;48.750;9.314;2023-08-21T09:01:41;26.70;99.90
40676;DHT22;26359;48.750;9.314;2023-08-21T09:04:06;26.80;99.90
40676;DHT22;26359;48.750;9.314;2023-08-21T09:06:33;26.90;99.90
40676;DHT22;26359;48.750;9.314;2023-08-21T09:08:59;27.00;99.90
40676;DHT22;26359;48.750;9.314;2023-08-21T09:11:26;27.10;99.90
40676;DHT22;26359;48.750;9.314;2023-08-21T09:13:53;27.30;99.90
40676;DHT22;26359;48.750;9.314;2023-08-21T09:16:20;27.40;99.90
40676;DHT22;26359;48.750;9.314;2023-08-21T09:18:50;27.50;99.90
40676;DHT22;26359;48.750;9.314;2023-08-21T09:21:20;27.60;99.90
40676;DHT22;26359;48.750;9.314;2023-08-21T09:23:46;27.70;99.90
40676;DHT22;26359;48.750;9.314;2023-08-21T09:26:21;27.70;99.90
40676;DHT22;26359;48.750;9.314;2023-08-21T09:28:51;27.90;99.90
40676;DHT22;26359;48.750;9.314;2023-08-21T09:31:37;28.00;99.90
40676;DHT22;26359;48.750;9.314;2023-08-21T09:34:04;28.00;99.90
40676;DHT22;26359;48.750;9.314;2023-08-21T09:36:33;28.00;99.90
40676;DHT22;26359;48.750;9.314;2023-08-21T09:38:59;28.20;99.90
40676;DHT22;26359;48.750;9.314;2023-08-21T09:41:26;28.30;99.90
40676;DHT22;26359;48.750;9.314;2023-08-21T09:43:51;28.40;99.90
40676;DHT22;26359;48.750;9.314;2023-08-21T09:46:23;28.50;99.90
40676;DHT22;26359;48.750;9.314;2023-08-21T09:48:49;28.70;99.90
40676;DHT22;26359;48.750;9.314;2023-08-21T09:51:16;28.70;99.90
40676;DHT22;26359;48.750;9.314;2023-08-21T09:53:42;28.80;99.90
40676;DHT22;26359;48.750;9.314;2023-08-21T09:56:08;28.90;99.90
40676;DHT22;26359;48.750;9.314;2023-08-21T09:58:37;29.00;99.90
40676;DHT22;26359;48.750;9.314;2023-08-21T10:01:05;29.10;99.90
40676;DHT22;26359;48.750;9.314;2023-08-21T10:03:39;29.40;99.90
40676;DHT22;26359;48.750;9.314;2023-08-21T10:06:06;29.50;99.90
40676;DHT22;26359;48.750;9.314;2023-08-21T10:08:37;29.60;99.90
40676;DHT22;26359;48.750;9.314;2023-08-21T10:11:06;29.60;99.90
40676;DHT22;26359;48.750;9.314;2023-08-21T10:13:33;29.70;99.90
40676;DHT22;26359;48.750;9.314;2023-08-21T10:15:59;29.80;99.90
40676;DHT22;26359;48.750;9.314;2023-08-21T10:18:31;29.90;99.90
40676;DHT22;26359;48.750;9.314;2023-08-21T10:21:10;30.00;99.90
40676;DHT22;26359;48.750;9.314;2023-08-21T10:23:37;30.10;99.90
40676;DHT22;26359;48.750;9.314;2023-08-21T10:26:06;30.30;99.90
40676;DHT22;26359;48.750;9.314;2023-08-21T10:28:54;30.40;99.90
40676;DHT22;26359;48.750;9.314;2023-08-21T10:31:29;30.50;99.90
40676;DHT22;26359;48.750;9.314;2023-08-21T10:33:54;30.70;99.90
40676;DHT22;26359;48.750;9.314;2023-08-21T10:39:24;31.10;99.90
40676;DHT22;26359;48.750;9.314;2023-08-21T10:49:40;31.90;99.90
40676;DHT22;26359;48.750;9.314;2023-08-21T10:52:08;32.10;99.90
40676;DHT22;26359;48.750;9.314;2023-08-21T11:01:43;32.60;99.90
40676;DHT22;26359;48.750;9.314;2023-08-21T11:04:11;32.80;99.90
40676;DHT22;26359;48.750;9.314;2023-08-21T11:06:36;33.00;99.90
40676;DHT22;26359;48.750;9.314;2023-08-21T11:09:03;33.10;99.90
40676;DHT22;26359;48.750;9.314;2023-08-21T11:11:29;33.30;99.90
40676;DHT22;26359;48.750;9.314;2023-08-21T11:13:55;33.60;99.90
40676;DHT22;26359;48.750;9.314;2023-08-21T11:16:21;33.70;99.90
40676;DHT22;26359;48.750;9.314;2023-08-21T11:18:46;33.90;99.90
40676;DHT22;26359;48.750;9.314;2023-08-21T11:21:12;34.00;99.90
40676;DHT22;26359;48.750;9.314;2023-08-21T11:23:40;34.10;99.90
40676;DHT22;26359;48.750;9.314;2023-08-21T11:26:09;34.20;99.90
40676;DHT22;26359;48.750;9.314;2023-08-21T11:28:35;34.30;99.90
40676;DHT22;26359;48.750;9.314;2023-08-21T11:31:01;34.40;99.90
40676;DHT22;26359;48.750;9.314;2023-08-21T11:33:27;34.60;99.90
40676;DHT22;26359;48.750;9.314;2023-08-21T11:35:54;34.70;99.90
40676;DHT22;26359;48.750;9.314;2023-08-21T11:38:21;34.80;99.90
40676;DHT22;26359;48.750;9.314;2023-08-21T11:40:54;35.00;99.90
40676;DHT22;26359;48.750;9.314;2023-08-21T11:43:19;34.90;99.90
40676;DHT22;26359;48.750;9.314;2023-08-21T11:45:48;34.60;99.90
40676;DHT22;26359;48.750;9.314;2023-08-21T11:48:14;34.50;99.90
40676;DHT22;26359;48.750;9.314;2023-08-21T11:50:40;34.40;99.90
40676;DHT22;26359;48.750;9.314;2023-08-21T11:53:05;34.40;99.90
40676;DHT22;26359;48.750;9.314;2023-08-21T11:55:31;34.60;99.90
40676;DHT22;26359;48.750;9.314;2023-08-21T11:57:57;34.90;99.90
40676;DHT22;26359;48.750;9.314;2023-08-21T12:00:28;35.20;99.90
40676;DHT22;26359;48.750;9.314;2023-08-21T12:03:01;35.40;99.90
40676;DHT22;26359;48.750;9.314;2023-08-21T12:05:28;35.40;99.90
40676;DHT22;26359;48.750;9.314;2023-08-21T12:07:55;35.30;99.90
40676;DHT22;26359;48.750;9.314;2023-08-21T12:10:27;35.20;99.90
40676;DHT22;26359;48.750;9.314;2023-08-21T12:12:54;35.40;99.90
40676;DHT22;26359;48.750;9.314;2023-08-21T12:15:20;35.60;99.90
40676;DHT22;26359;48.750;9.314;2023-08-21T12:17:45;35.60;99.90
40676;DHT22;26359;48.750;9.314;2023-08-21T12:20:11;35.60;99.90
40676;DHT22;26359;48.750;9.314;2023-08-21T12:22:40;35.60;99.90
40676;DHT22;26359;48.750;9.314;2023-08-21T12:25:08;35.50;99.90
40676;DHT22;26359;48.750;9.314;2023-08-21T12:27:34;35.70;99.90
40676;DHT22;26359;48.750;9.314;2023-08-21T12:29:59;35.90;99.90
40676;DHT22;26359;48.750;9.314;2023-08-21T12:32:25;35.70;99.90
40676;DHT22;26359;48.750;9.314;2023-08-21T12:34:50;35.90;99.90
40676;DHT22;26359;48.750;9.314;2023-08-21T12:37:17;35.80;99.90
40676;DHT22;26359;48.750;9.314;2023-08-21T12:39:43;35.70;99.90
40676;DHT22;26359;48.750;9.314;2023-08-21T12:42:08;35.70;99.90
40676;DHT22;26359;48.750;9.314;2023-08-21T12:44:34;35.70;99.90
40676;DHT22;26359;48.750;9.314;2023-08-21T12:47:00;35.90;99.90
40676;DHT22;26359;48.750;9.314;2023-08-21T12:49:25;35.90;99.90
40676;DHT22;26359;48.750;9.314;2023-08-21T12:51:51;35.60;99.90
40676;DHT22;26359;48.750;9.314;2023-08-21T12:54:16;35.60;99.90
40676;DHT22;26359;48.750;9.314;2023-08-21T12:56:42;35.70;99.90
40676;DHT22;26359;48.750;9.314;2023-08-21T12:59:07;35.90;99.90
40676;DHT22;26359;48.750;9.314;2023-08-21T13:01:33;36.10;99.90
40676;DHT22;26359;48.750;9.314;2023-08-21T13:04:00;36.40;99.90
40676;DHT22;26359;48.750;9.314;2023-08-21T13:06:26;36.70;99.90
40676;DHT22;26359;48.750;9.314;2023-08-21T13:08:51;36.70;99.90
40676;DHT22;26359;48.750;9.314;2023-08-21T13:11:17;36.60;99.90
40676;DHT22;26359;48.750;9.314;2023-08-21T13:13:43;36.50;99.90
40676;DHT22;26359;48.750;9.314;2023-08-21T13:16:08;36.60;99.80
40676;DHT22;26359;48.750;9.314;2023-08-21T13:18:34;36.60;99.40
40676;DHT22;26359;48.750;9.314;2023-08-21T13:20:59;36.60;99.90
40676;DHT22;26359;48.750;9.314;2023-08-21T13:23:25;36.60;98.90
40676;DHT22;26359;48.750;9.314;2023-08-21T13:25:50;36.80;99.90
40676;DHT22;26359;48.750;9.314;2023-08-21T13:28:16;36.80;99.70
40676;DHT22;26359;48.750;9.314;2023-08-21T13:30:41;36.70;99.40
40676;DHT22;26359;48.750;9.314;2023-08-21T13:33:07;36.60;98.60
40676;DHT22;26359;48.750;9.314;2023-08-21T13:35:33;36.40;99.20
40676;DHT22;26359;48.750;9.314;2023-08-21T13:37:58;36.40;98.60
40676;DHT22;26359;48.750;9.314;2023-08-21T13:40:24;36.40;99.10
40676;DHT22;26359;48.750;9.314;2023-08-21T13:42:50;36.40;99.40
40676;DHT22;26359;48.750;9.314;2023-08-21T13:45:17;36.60;98.70
40676;DHT22;26359;48.750;9.314;2023-08-21T13:47:44;36.60;98.80
40676;DHT22;26359;48.750;9.314;2023-08-21T13:50:13;36.40;99.20
40676;DHT22;26359;48.750;9.314;2023-08-21T13:52:40;36.20;99.30
40676;DHT22;26359;48.750;9.314;2023-08-21T13:55:07;35.70;99.20
40676;DHT22;26359;48.750;9.314;2023-08-21T13:57:33;35.30;99.80
40676;DHT22;26359;48.750;9.314;2023-08-21T13:59:59;34.90;99.90
40676;DHT22;26359;48.750;9.314;2023-08-21T14:02:25;34.70;99.90
40676;DHT22;26359;48.750;9.314;2023-08-21T14:04:51;34.60;99.90
40676;DHT22;26359;48.750;9.314;2023-08-21T14:07:16;34.80;99.90
40676;DHT22;26359;48.750;9.314;2023-08-21T14:09:42;34.80;99.90
40676;DHT22;26359;48.750;9.314;2023-08-21T14:12:08;34.70;99.90
40676;DHT22;26359;48.750;9.314;2023-08-21T14:14:35;34.50;99.90
40676;DHT22;26359;48.750;9.314;2023-08-21T14:17:01;34.50;99.90
40676;DHT22;26359;48.750;9.314;2023-08-21T14:19:27;34.50;99.90
40676;DHT22;26359;48.750;9.314;2023-08-21T14:21:53;34.80;99.90
40676;DHT22;26359;48.750;9.314;2023-08-21T14:24:19;35.10;99.90
40676;DHT22;26359;48.750;9.314;2023-08-21T14:26:44;35.40;99.90
40676;DHT22;26359;48.750;9.314;2023-08-21T14:29:10;35.60;99.80
40676;DHT22;26359;48.750;9.314;2023-08-21T14:31:35;35.50;98.70
40676;DHT22;26359;48.750;9.314;2023-08-21T14:34:01;35.30;99.10
40676;DHT22;26359;48.750;9.314;2023-08-21T14:36:26;35.20;99.70
40676;DHT22;26359;48.750;9.314;2023-08-21T14:38:52;35.10;99.30
40676;DHT22;26359;48.750;9.314;2023-08-21T14:41:17;35.00;99.90
40676;DHT22;26359;48.750;9.314;2023-08-21T14:43:43;35.20;98.80
40676;DHT22;26359;48.750;9.314;2023-08-21T14:46:09;35.30;99.00
40676;DHT22;26359;48.750;9.314;2023-08-21T14:48:35;35.40;98.50
40676;DHT22;26359;48.750;9.314;2023-08-21T14:51:01;35.60;98.70
40676;DHT22;26359;48.750;9.314;2023-08-21T14:53:26;35.80;98.50
40676;DHT22;26359;48.750;9.314;2023-08-21T14:55:52;35.80;98.10
40676;DHT22;26359;48.750;9.314;2023-08-21T14:58:17;36.00;99.00
40676;DHT22;26359;48.750;9.314;2023-08-21T15:00:43;36.10;98.30
40676;DHT22;26359;48.750;9.314;2023-08-21T15:03:08;36.30;97.60
40676;DHT22;26359;48.750;9.314;2023-08-21T15:05:34;36.30;97.20
40676;DHT22;26359;48.750;9.314;2023-08-21T15:08:00;36.30;96.70
40676;DHT22;26359;48.750;9.314;2023-08-21T15:10:30;36.30;97.80
40676;DHT22;26359;48.750;9.314;2023-08-21T15:12:55;36.20;98.00
40676;DHT22;26359;48.750;9.314;2023-08-21T15:15:22;36.20;97.20
40676;DHT22;26359;48.750;9.314;2023-08-21T15:17:47;36.20;97.50
40676;DHT22;26359;48.750;9.314;2023-08-21T15:20:13;36.30;97.70
40676;DHT22;26359;48.750;9.314;2023-08-21T15:22:41;36.40;96.50
40676;DHT22;26359;48.750;9.314;2023-08-21T15:25:08;36.20;97.20
40676;DHT22;26359;48.750;9.314;2023-08-21T15:27:35;36.00;97.30
40676;DHT22;26359;48.750;9.314;2023-08-21T15:30:00;35.80;97.90
40676;DHT22;26359;48.750;9.314;2023-08-21T15:32:26;35.50;97.60
40676;DHT22;26359;48.750;9.314;2023-08-21T15:34:51;35.30;98.20
40676;DHT22;26359;48.750;9.314;2023-08-21T15:37:17;35.00;98.10
40676;DHT22;26359;48.750;9.314;2023-08-21T15:39:42;34.70;98.70
40676;DHT22;26359;48.750;9.314;2023-08-21T15:42:08;34.60;98.80
40676;DHT22;26359;48.750;9.314;2023-08-21T15:44:33;34.40;98.90